createdAt,value
2019-05-12T00:01:09.706Z,82.05
2019-05-12T00:06:15.053Z,82.59
2019-05-12T00:11:20.403Z,82.63
2019-05-12T00:16:28.188Z,82.67
2019-05-12T00:21:32.974Z,83.31
2019-05-12T00:26:38.398Z,83.02
2019-05-12T00:31:43.782Z,81.71
2019-05-12T00:36:49.176Z,82.07
2019-05-12T00:41:54.862Z,82.00
2019-05-12T00:47:00.167Z,81.81
2019-05-12T00:52:05.507Z,80.68
2019-05-12T00:57:10.807Z,80.49
2019-05-12T01:02:20.239Z,79.76
2019-05-12T01:07:27.726Z,79.72
2019-05-12T01:12:32.507Z,79.96
2019-05-12T01:17:40.076Z,79.70
2019-05-12T01:22:45.662Z,79.59
2019-05-12T01:27:50.939Z,78.88
2019-05-12T01:32:58.090Z,78.71
2019-05-12T01:38:04.080Z,78.86
2019-05-12T01:43:09.819Z,78.46
2019-05-12T01:48:15.469Z,78.19
2019-05-12T01:53:20.808Z,78.14
2019-05-12T01:58:27.785Z,78.35
2019-05-12T02:03:33.344Z,78.17
2019-05-12T02:08:44.903Z,78.17
2019-05-12T02:13:50.153Z,78.05
2019-05-12T02:18:55.397Z,79.74
2019-05-12T02:24:00.653Z,80.55
2019-05-12T02:29:07.866Z,80.41
2019-05-12T02:34:15.703Z,80.85
2019-05-12T02:39:20.159Z,80.80
2019-05-12T02:44:34.676Z,81.84
2019-05-12T02:49:50.588Z,82.94
2019-05-12T02:55:05.937Z,83.44
2019-05-12T03:00:24.246Z,83.41
2019-05-12T03:05:36.120Z,81.86
2019-05-12T03:10:46.154Z,81.83
2019-05-12T03:15:54.886Z,82.06
2019-05-12T03:21:00.149Z,82.29
2019-05-12T03:26:06.919Z,82.79
2019-05-12T03:31:22.205Z,83.24
2019-05-12T03:36:21.306Z,84.07
2019-05-12T03:41:27.390Z,84.15
2019-05-12T03:46:35.564Z,84.41
2019-05-12T03:51:45.371Z,82.88
2019-05-12T03:56:55.498Z,84.13
2019-05-12T04:02:00.116Z,83.98
2019-05-12T04:07:06.446Z,84.73
2019-05-12T04:12:14.791Z,84.87
2019-05-12T04:17:24.332Z,84.82
2019-05-12T04:22:30.529Z,84.76
2019-05-12T04:27:36.991Z,84.18
2019-05-12T04:32:45.551Z,83.77
2019-05-12T04:37:55.064Z,83.82
2019-05-12T04:43:05.853Z,83.83
2019-05-12T04:48:10.970Z,83.70
2019-05-12T04:53:25.345Z,83.71
2019-05-12T04:58:34.844Z,83.52
2019-05-12T05:03:39.112Z,83.65
2019-05-12T05:08:45.006Z,83.34
2019-05-12T05:13:51.410Z,83.06
2019-05-12T05:18:58.717Z,82.69
2019-05-12T05:24:05.131Z,82.26
2019-05-12T05:29:13.526Z,81.58
2019-05-12T05:34:23.585Z,80.85
2019-05-12T05:39:35.427Z,79.46
2019-05-12T05:44:43.477Z,79.36
2019-05-12T05:49:49.941Z,76.77
2019-05-12T05:54:56.772Z,76.10
2019-05-12T06:00:07.330Z,75.73
2019-05-12T06:05:11.399Z,74.23
2019-05-12T06:10:19.460Z,72.15
2019-05-12T06:15:29.759Z,71.54
2019-05-12T06:20:37.660Z,71.39
2019-05-12T06:25:49.279Z,70.43
2019-05-12T06:30:54.620Z,70.23
2019-05-12T06:36:03.754Z,70.43
2019-05-12T06:41:12.612Z,70.48
2019-05-12T06:46:21.042Z,69.32
2019-05-12T06:51:26.015Z,68.69
2019-05-12T06:56:34.365Z,69.35
2019-05-12T07:01:39.945Z,68.70
2019-05-12T07:06:49.772Z,68.18
2019-05-12T07:12:02.706Z,68.78
2019-05-12T07:17:07.305Z,67.14
2019-05-12T07:22:21.867Z,66.93
2019-05-12T07:27:35.284Z,68.10
2019-05-12T07:32:31.095Z,67.19
2019-05-12T07:37:38.166Z,67.66
2019-05-12T07:42:43.934Z,67.01
2019-05-12T07:47:49.189Z,66.42
2019-05-12T07:52:54.471Z,67.26
2019-05-12T07:58:10.303Z,66.21
2019-05-12T08:03:15.954Z,66.21
2019-05-12T08:08:14.538Z,65.93
2019-05-12T08:13:20.072Z,64.92
2019-05-12T08:18:25.330Z,65.27
2019-05-12T08:23:33.846Z,63.66
2019-05-12T08:28:40.379Z,63.22
2019-05-12T08:33:45.947Z,63.31
2019-05-12T08:38:53.602Z,62.25
2019-05-12T08:43:58.692Z,60.56
2019-05-12T08:49:05.594Z,60.80
2019-05-12T08:54:10.837Z,59.83
2019-05-12T08:59:18.493Z,57.75
2019-05-12T09:04:24.705Z,59.09
2019-05-12T09:09:30.096Z,57.99
2019-05-12T09:14:41.055Z,57.42
2019-05-12T09:19:43.604Z,59.21
2019-05-12T09:24:49.263Z,56.19
2019-05-12T09:29:59.217Z,54.78
2019-05-12T09:35:04.034Z,54.55
2019-05-12T09:40:09.169Z,52.53
2019-05-12T09:45:15.546Z,55.85
2019-05-12T09:50:20.769Z,54.02
2019-05-12T09:55:26.266Z,54.36
2019-05-12T10:00:36.038Z,53.60
2019-05-12T10:05:41.204Z,54.76
2019-05-12T10:10:47.191Z,54.74
2019-05-12T10:15:53.591Z,53.55
2019-05-12T10:20:59.273Z,50.86
2019-05-12T10:26:10.047Z,52.10
2019-05-12T10:31:13.835Z,50.91
2019-05-12T10:36:18.861Z,51.84
2019-05-12T10:41:24.128Z,50.96
2019-05-12T10:46:29.421Z,51.61
2019-05-12T10:51:35.067Z,50.75
2019-05-12T10:56:40.441Z,49.90
2019-05-12T11:01:49.026Z,50.50
2019-05-12T11:06:53.776Z,49.24
2019-05-12T11:11:59.073Z,48.08
2019-05-12T11:17:09.140Z,47.56
2019-05-12T11:22:14.920Z,46.03
2019-05-12T11:27:20.221Z,45.98
2019-05-12T11:32:28.931Z,46.41
2019-05-12T11:37:33.840Z,44.45
2019-05-12T11:42:39.111Z,44.28
2019-05-12T11:47:44.757Z,41.24
2019-05-12T11:52:51.087Z,41.33
2019-05-12T11:58:00.230Z,41.16
2019-05-12T12:03:18.172Z,40.09
2019-05-12T12:08:18.264Z,38.98
2019-05-12T12:13:29.755Z,41.56
2019-05-12T12:18:33.755Z,39.72
2019-05-12T12:23:50.190Z,35.84
2019-05-12T12:28:56.852Z,36.85
2019-05-12T12:34:02.650Z,39.12
2019-05-12T12:39:07.959Z,37.23
2019-05-12T12:44:13.619Z,35.30
2019-05-12T12:49:18.899Z,32.72
2019-05-12T12:54:24.655Z,33.21
2019-05-12T12:59:29.883Z,33.91
2019-05-12T13:04:39.709Z,33.83
2019-05-12T13:09:44.230Z,35.27
2019-05-12T13:14:49.794Z,32.50
2019-05-12T13:19:58.638Z,34.53
2019-05-12T13:25:04.480Z,35.18
2019-05-12T13:30:16.292Z,36.92
2019-05-12T13:35:20.004Z,33.73
2019-05-12T13:40:23.883Z,30.88
2019-05-12T13:45:29.687Z,34.80
2019-05-12T13:50:43.400Z,31.58
2019-05-12T13:55:50.081Z,36.22
2019-05-12T14:06:04.106Z,31.22
2019-05-12T14:11:12.599Z,27.25
2019-05-12T14:16:20.827Z,29.89
2019-05-12T14:21:35.282Z,32.53
2019-05-12T14:26:39.282Z,30.15
2019-05-12T14:31:50.979Z,28.45
2019-05-12T14:37:10.429Z,28.70
2019-05-12T14:42:14.160Z,32.81
2019-05-12T14:47:25.690Z,32.02
2019-05-12T14:52:33.274Z,27.05
2019-05-12T14:57:39.451Z,28.48
2019-05-12T15:02:44.785Z,32.60
2019-05-12T15:07:51.528Z,28.03
2019-05-12T15:13:03.509Z,28.04
2019-05-12T15:18:12.864Z,26.96
2019-05-12T15:23:16.537Z,31.65
2019-05-12T15:28:23.681Z,31.50
2019-05-12T15:33:29.054Z,33.54
2019-05-12T15:38:34.422Z,37.93
2019-05-12T15:43:44.407Z,38.31
2019-05-12T15:48:47.714Z,38.89
2019-05-12T15:53:57.275Z,39.17
2019-05-12T15:59:00.986Z,37.64
2019-05-12T16:04:06.992Z,39.24
2019-05-12T16:09:13.259Z,37.77
2019-05-12T16:14:19.215Z,38.66
2019-05-12T16:19:26.538Z,40.98
2019-05-12T16:24:33.926Z,41.74
2019-05-12T16:29:38.842Z,41.59
2019-05-12T16:34:48.773Z,41.34
2019-05-12T16:39:54.069Z,40.39
2019-05-12T16:45:05.941Z,40.37
2019-05-12T16:50:15.182Z,39.04
2019-05-12T16:55:14.042Z,39.76
2019-05-12T17:00:20.560Z,39.74
2019-05-12T17:05:25.886Z,38.97
2019-05-12T17:10:31.182Z,39.78
2019-05-12T17:15:36.816Z,40.18
2019-05-12T17:20:47.026Z,41.89
2019-05-12T17:25:49.984Z,41.49
2019-05-12T17:30:55.203Z,42.10
2019-05-12T17:36:03.111Z,42.89
2019-05-12T17:41:08.547Z,41.38
2019-05-12T17:46:18.099Z,41.20
2019-05-12T17:51:26.789Z,40.24
2019-05-12T17:56:36.674Z,41.12
2019-05-12T18:01:38.716Z,41.91
2019-05-12T18:06:44.237Z,42.02
2019-05-12T18:11:54.288Z,42.16
2019-05-12T18:17:02.508Z,43.99
2019-05-12T18:22:09.104Z,43.21
2019-05-12T18:27:10.752Z,44.55
2019-05-12T18:32:16.415Z,44.81
2019-05-12T18:37:23.933Z,44.20
2019-05-12T18:42:28.639Z,44.73
2019-05-12T18:47:36.505Z,46.14
2019-05-12T18:52:43.661Z,47.48
2019-05-12T18:57:50.073Z,48.01
2019-05-12T19:02:59.814Z,48.05
2019-05-12T19:08:03.853Z,48.46
2019-05-12T19:13:09.494Z,49.01
2019-05-12T19:18:18.341Z,49.28
2019-05-12T19:23:26.949Z,50.64
2019-05-12T19:28:31.404Z,51.31
2019-05-12T19:33:43.855Z,50.84
2019-05-12T19:38:44.603Z,51.23
2019-05-12T19:43:53.298Z,51.79
2019-05-12T19:48:58.281Z,52.39
2019-05-12T19:54:04.835Z,53.08
2019-05-12T19:59:10.757Z,53.82
2019-05-12T20:04:29.649Z,53.70
2019-05-12T20:09:24.354Z,54.45
2019-05-12T20:14:30.471Z,54.85
2019-05-12T20:19:36.351Z,54.99
2019-05-12T20:24:44.308Z,55.18
2019-05-12T20:29:49.732Z,56.25
2019-05-12T20:34:55.470Z,60.78
2019-05-12T20:40:05.273Z,62.24
2019-05-12T20:45:13.597Z,61.48
2019-05-12T20:50:24.277Z,61.25
2019-05-12T20:55:30.068Z,59.48
2019-05-12T21:00:33.771Z,59.15
2019-05-12T21:05:39.589Z,64.40
2019-05-12T21:10:45.990Z,66.18
2019-05-12T21:15:53.759Z,64.85
2019-05-12T21:20:58.496Z,64.94
2019-05-12T21:26:04.507Z,65.76
2019-05-12T21:31:10.256Z,66.28
2019-05-12T21:36:23.857Z,68.33
2019-05-12T21:41:24.593Z,69.79
2019-05-12T21:46:31.776Z,68.19
2019-05-12T21:51:38.080Z,69.47
2019-05-12T21:56:48.010Z,69.44
2019-05-12T22:01:53.388Z,69.21
2019-05-12T22:06:59.057Z,68.86
2019-05-12T22:12:04.909Z,71.23
2019-05-12T22:17:10.407Z,71.58
2019-05-12T22:22:19.537Z,70.24
2019-05-12T22:27:27.074Z,70.33
2019-05-12T22:32:29.949Z,71.97
2019-05-12T22:37:36.527Z,71.19
2019-05-12T22:42:44.363Z,72.81
2019-05-12T22:47:54.056Z,73.06
2019-05-12T22:52:56.070Z,74.40
2019-05-12T22:58:01.717Z,73.76
2019-05-12T23:03:11.651Z,73.92
2019-05-12T23:08:14.357Z,74.70
2019-05-12T23:13:19.913Z,75.31
2019-05-12T23:18:30.542Z,75.86
2019-05-12T23:23:34.441Z,75.01
2019-05-12T23:28:40.421Z,76.12
2019-05-12T23:33:46.706Z,74.98
2019-05-12T23:39:00.153Z,74.84
2019-05-12T23:43:58.988Z,74.46
2019-05-12T23:49:04.379Z,74.74
2019-05-12T23:54:09.688Z,75.66
2019-05-12T23:59:15.041Z,75.35
